Terminal Aerodrome Forecast
Issued by NWS Topeka, KS

Home | Current Version | Previous Version | Text Only | Print | Product List | Glossary On
Versions: 1 2 3 4 5 6 7 8 9 10 11 12 13 14 15 16 17 18
000
FTUS43 KTOP 251700
TAFTOP
TAF
KTOP 251720Z 2518/2618 34011G19KT P6SM BKN024
     FM260000 01008KT P6SM OVC014
     FM260400 04009KT 6SM BR OVC007=

USA.gov is the U.S. government's official web portal to all federal, state and local government web resources and services.